North Yarmouth, Maine
Current Conditions -  °F | °C
As of 4:51 PM on Monday 22 Dec 2014 (Local Time) from KPWM Reporting Station
Overcast Overcast  
Wind Chill: 32°   Ceiling: 1500
Heat Index: 37°   Visibility: 10mi
Dew Point: 29°   Wind: 6mph
Humidity: 73%   Direction: 350°N
Pressure: 30.36"   Gusts: NA
Location:  43.84°N, 70.23°W
Report Text: KPWM 222151Z 35005KT 10SM OVC015 03/M02 A3036 RMK AO2 SLP283 T00281017
Loading
Personal Weather Stations






























Interactive Weather Map New forecast layout! Learn more

10-Day Weather Forecast

Advertisements
Track Severe Weather on mobile